メインページ
METAR-TAF:

METAR-TAF

空港 :

ソフィア空港

ソフィア, ブルガリア

緯度: 42-39N, 経度: 023-23E, 海抜: 586m

現時点の気象観測

当レポートは38分前の11:00(UTC)に作成
東/南東の風 4kt、東/北東から南/南東の間で変化する
気温 28°C
湿度 35%
気圧 1013 hPa
視程10km以上
高度6500ftの雲は散在している

METAR: LBSF 241100Z 11004KT 060V150 9999 SCT065 28/11 Q1013 BECMG 27016KT

時間: 14:38 (11:38 UTC)

予報

当レポートは6時間38分前の05:00(UTC)に作成
予報は24日の 06時(UTC)から 25日の 06時(UTC)まで有効
変向風 4kt
視程10km以上
1,500メートル以下は雲なし、積乱雲なし
24日の 10時(UTC)から 24日の 11時(UTC)まで徐々に
西/北西の風 16kt
高度4000ftの雲は散在している
24日の 11時(UTC)から 24日の 15時(UTC)まで一時的に
西/北西の風 20kt、最大30ktの突風を伴う

TAF: LBSF 240500Z 2406/2506 VRB04KT CAVOK BECMG 2410/2411 30016KT SCT040 TEMPO 2411/2415 29020G30KT

4,000以上の空港の気象観測と天気予報(METAR報とTAF報)

利用可能な観測所は地図上に黄色い丸と赤い丸で示す。

丸の上にカーソルを重ねると観測所名を参照できる。

次にクリックすると気象観測と天気予報を参照できる。

マップの切り替え:黒色「×」印の緑ボタンをクリックして拡大、「-」印の緑ボタンをクリックして縮小、緑色の三角印をクリックして隣りの地図に切り替え


METAR-TAF: